Change the Weather History Date:

Saturday, August 17, 2013

  Actual Average (KISN) Record (KISN)
Temperature  
Mean Temperature 76 °F 69 °F  
Max Temperature 93 °F 84 °F 102 °F (1996)
Min Temperature 59 °F 54 °F 37 °F (1977)
Degree Days  
Heating Degree Days 0 1  
Month to date heating degree days 17  
Since 1 June heating degree days 161  
Since 1 July heating degree days 41  
Cooling Degree Days 11 5  
Month to date cooling degree days 111  
Year to date cooling degree days 374  
Since 1 June cooling degree days 361  
Growing Degree Days 26 (Base 50)    
Moisture  
Dew Point 61 °F    
Average Humidity 64    
Maximum Humidity 100    
Minimum Humidity 30    
Precipitation  
Precipitation 0.00 in 0.05 in 1.36 in (1930)
Month to date precipitation 0.82  
Year to date precipitation 10.49  
Sea Level Pressure  
Sea Level Pressure 29.87 in    
Wind  
Wind Speed 6 mph (SSE)    
Max Wind Speed 14 mph    
Max Gust Speed 22 mph    
Visibility 10 miles    
Events      
T = Trace of Precipitation, MM = Missing Value Source: NWS Daily Summary

Daily Weather History Graph

Daily Weather History Graph

Search for Another Location

Airport or City:

Trip Planner

Search our weather history database for the weather conditions in past years. The results will help you decide how hot, cold, wet, or windy it might be!

Date:

Astronomy

Aug. 17, 2013 Rise Set
Actual Time 6:51 AM CDT 9:01 PM CDT
Civil Twilight 6:17 AM CDT 9:35 PM CDT
Nautical Twilight 5:35 AM CDT 10:16 PM CDT
Astronomical Twilight 4:48 AM CDT 11:03 PM CDT
Moon 6:26 PM CDT (8/17) 2:48 AM CDT (8/17)
Length of Visible Light 15h 17m
Length of Day
14h 10m
Waxing Gibbous, 84% of the Moon is Illuminated
Aug 17
Waxing Gibbous
Aug 20
Full
Aug 28
Last Quarter
Sep 5
New
Sep 12
First Quarter

Hourly Weather History & Observations

Time (CDT) Temp. Heat Index Dew Point Humidity Pressure Visibility Wind Dir Wind Speed Gust Speed Precip Events Conditions
12:15 AM 68.0 °F - 57.2 °F 68% 29.93 in 10.0 mi SSE 6.9 mph - N/A   Clear
12:35 AM 68.0 °F - 59.0 °F 73% 29.93 in 10.0 mi South 5.8 mph - N/A   Clear
12:55 AM 68.0 °F - 59.0 °F 73% 29.93 in 10.0 mi SSE 6.9 mph - N/A   Clear
1:15 AM 68.0 °F - 59.0 °F 73% 29.93 in 10.0 mi SSE 6.9 mph - N/A   Clear
1:35 AM 66.2 °F - 59.0 °F 78% 29.92 in 10.0 mi SSE 4.6 mph - N/A   Clear
1:55 AM 66.2 °F - 59.0 °F 78% 29.92 in 10.0 mi South 6.9 mph - N/A   Clear
2:15 AM 66.2 °F - 59.0 °F 78% 29.92 in 10.0 mi South 8.1 mph - N/A   Clear
2:35 AM 66.2 °F - 59.0 °F 78% 29.92 in 10.0 mi South 8.1 mph - N/A   Clear
2:55 AM 66.2 °F - 59.0 °F 78% 29.91 in 10.0 mi SSE 8.1 mph - N/A   Clear
3:15 AM 66.2 °F - 60.8 °F 83% 29.91 in 10.0 mi South 8.1 mph - N/A   Clear
3:35 AM 64.4 °F - 60.8 °F 88% 29.91 in 10.0 mi SSE 5.8 mph - N/A   Clear
3:55 AM 64.4 °F - 60.8 °F 88% 29.90 in 10.0 mi South 5.8 mph - N/A   Clear
4:15 AM 64.4 °F - 59.0 °F 83% 29.90 in 10.0 mi SSE 5.8 mph - N/A   Clear
4:35 AM 64.4 °F - 60.8 °F 88% 29.91 in 10.0 mi SSE 5.8 mph - N/A   Clear
4:55 AM 62.6 °F - 59.0 °F 88% 29.91 in 10.0 mi SE 5.8 mph - N/A   Clear
5:15 AM 62.6 °F - 59.0 °F 88% 29.90 in 10.0 mi SE 6.9 mph - N/A   Clear
5:35 AM 62.6 °F - 59.0 °F 88% 29.90 in 10.0 mi SE 4.6 mph - N/A   Clear
5:55 AM 60.8 °F - 59.0 °F 94% 29.90 in 10.0 mi SSE 3.5 mph - N/A   Clear
6:15 AM 59.0 °F - 59.0 °F 100% 29.90 in 10.0 mi SE 5.8 mph - N/A   Clear
6:35 AM 60.8 °F - 59.0 °F 94% 29.90 in 10.0 mi ESE 6.9 mph - N/A   Clear
6:55 AM 60.8 °F - 59.0 °F 94% 29.89 in 10.0 mi SE 6.9 mph - N/A   Unknown
7:15 AM 59.0 °F - 59.0 °F 100% 29.89 in 10.0 mi ESE 5.8 mph - N/A   Clear
7:35 AM 59.0 °F - 59.0 °F 100% 29.89 in 10.0 mi ESE 8.1 mph - N/A   Clear
7:55 AM 59.0 °F - 59.0 °F 100% 29.89 in 10.0 mi ESE 5.8 mph - N/A   Clear
8:15 AM 62.6 °F - 60.8 °F 94% 29.89 in 10.0 mi ESE 4.6 mph - N/A   Clear
8:35 AM 64.4 °F - 60.8 °F 88% 29.89 in 10.0 mi ESE 6.9 mph - N/A   Clear
8:55 AM 66.2 °F - 60.8 °F 83% 29.89 in 10.0 mi ESE 6.9 mph - N/A   Clear
9:15 AM 68.0 °F - 60.8 °F 78% 29.90 in 10.0 mi NE 3.5 mph - N/A   Clear
9:35 AM 69.8 °F - 59.0 °F 68% 29.90 in 10.0 mi Calm Calm - N/A   Clear
9:55 AM 71.6 °F - 60.8 °F 69% 29.89 in 10.0 mi ESE 4.6 mph - N/A   Clear
10:15 AM 73.4 °F - 60.8 °F 65% 29.89 in 10.0 mi SE 5.8 mph - N/A   Clear
10:35 AM 75.2 °F - 62.6 °F 65% 29.88 in 10.0 mi SSE 6.9 mph - N/A   Clear
10:55 AM 77.0 °F - 62.6 °F 61% 29.88 in 10.0 mi SSE 5.8 mph - N/A   Clear
11:15 AM 80.6 °F 81.5 °F 60.8 °F 51% 29.88 in 10.0 mi SE 5.8 mph - N/A   Clear
11:35 AM 82.4 °F 82.5 °F 59.0 °F 45% 29.88 in 10.0 mi South 8.1 mph - N/A   Clear
11:55 AM 84.2 °F 83.8 °F 59.0 °F 42% 29.87 in 10.0 mi South 6.9 mph - N/A   Clear
12:15 PM 86.0 °F 84.9 °F 57.2 °F 37% 29.87 in 10.0 mi SSW 6.9 mph - N/A   Clear
12:35 PM 86.0 °F 84.9 °F 57.2 °F 37% 29.87 in 10.0 mi South 5.8 mph - N/A   Clear
12:55 PM 87.8 °F 87.1 °F 59.0 °F 38% 29.87 in 10.0 mi South 5.8 mph - N/A   Clear
1:15 PM 89.6 °F 88.9 °F 59.0 °F 36% 29.87 in 10.0 mi South 8.1 mph - N/A   Clear
1:35 PM 89.6 °F 88.9 °F 59.0 °F 36% 29.86 in 10.0 mi SW 3.5 mph - N/A   Clear
1:55 PM 89.6 °F 89.5 °F 60.8 °F 38% 29.85 in 10.0 mi SSE 8.1 mph - N/A   Clear
2:15 PM 91.4 °F 90.7 °F 59.0 °F 34% 29.85 in 10.0 mi SSW 6.9 mph - N/A   Clear
2:35 PM 91.4 °F 91.4 °F 60.8 °F 36% 29.84 in 10.0 mi South 6.9 mph - N/A   Clear
2:55 PM 91.4 °F 92.1 °F 62.6 °F 38% 29.84 in 10.0 mi SE 8.1 mph - N/A   Clear
3:15 PM 91.4 °F 91.4 °F 60.8 °F 36% 29.83 in 10.0 mi SSE 8.1 mph - N/A   Clear
3:35 PM 93.2 °F 92.6 °F 59.0 °F 32% 29.83 in 10.0 mi South 4.6 mph - N/A   Clear
3:55 PM 93.2 °F 93.3 °F 60.8 °F 34% 29.82 in 10.0 mi ESE 8.1 mph - N/A   Clear
4:15 PM 93.2 °F 94.1 °F 62.6 °F 36% 29.82 in 10.0 mi ESE 9.2 mph - N/A   Clear
4:35 PM 93.2 °F 94.1 °F 62.6 °F 36% 29.81 in 10.0 mi ENE 5.8 mph - N/A   Clear
4:55 PM 93.2 °F 92.6 °F 59.0 °F 32% 29.81 in 10.0 mi East 5.8 mph - N/A   Clear
5:15 PM 93.2 °F 91.9 °F 57.2 °F 30% 29.80 in 10.0 mi ESE 3.5 mph - N/A   Clear
5:35 PM 93.2 °F 91.9 °F 57.2 °F 30% 29.81 in 10.0 mi NW 9.2 mph - N/A   Clear
5:55 PM 89.6 °F 90.1 °F 62.6 °F 40% 29.81 in 10.0 mi NW 13.8 mph 21.9 mph N/A   Clear
6:15 PM 89.6 °F 89.5 °F 60.8 °F 38% 29.81 in 10.0 mi NNW 11.5 mph - N/A   Clear
6:35 PM 89.6 °F 89.5 °F 60.8 °F 38% 29.81 in 10.0 mi NNW 8.1 mph - N/A   Clear
6:55 PM 89.6 °F 90.1 °F 62.6 °F 40% 29.81 in 10.0 mi NNW 8.1 mph - N/A   Clear
7:15 PM 87.8 °F 88.5 °F 62.6 °F 43% 29.81 in 10.0 mi NNW 9.2 mph - N/A   Clear
7:35 PM 86.0 °F 86.1 °F 60.8 °F 43% 29.82 in 10.0 mi NW 6.9 mph - N/A   Clear
7:55 PM 84.2 °F 85.0 °F 62.6 °F 48% 29.81 in 10.0 mi NNW 5.8 mph - N/A   Clear
8:15 PM 82.4 °F 83.9 °F 64.4 °F 54% 29.81 in 10.0 mi NW 9.2 mph - N/A   Clear
8:35 PM 80.6 °F 82.7 °F 66.2 °F 61% 29.81 in 10.0 mi WNW 6.9 mph - N/A   Clear
8:55 PM 78.8 °F - 66.2 °F 65% 29.82 in 10.0 mi NW 10.4 mph - N/A   Clear
9:15 PM 77.0 °F - 66.2 °F 69% 29.83 in 10.0 mi NW 9.2 mph - N/A   Clear
9:35 PM 75.2 °F - 66.2 °F 73% 29.83 in 10.0 mi NNW 8.1 mph - N/A   Clear
9:55 PM 73.4 °F - 66.2 °F 78% 29.84 in 10.0 mi North 4.6 mph - N/A   Clear
10:15 PM 73.4 °F - 66.2 °F 78% 29.84 in 10.0 mi Calm Calm - N/A   Clear
10:35 PM 71.6 °F - 64.4 °F 78% 29.85 in 10.0 mi WNW 4.6 mph - N/A   Clear
10:55 PM 71.6 °F - 64.4 °F 78% 29.85 in 10.0 mi WNW 4.6 mph - N/A   Clear
11:15 PM 71.6 °F - 64.4 °F 78% 29.85 in 10.0 mi NW 5.8 mph - N/A   Clear
11:35 PM 71.6 °F - 64.4 °F 78% 29.86 in 10.0 mi Calm Calm - N/A   Clear
11:55 PM 71.6 °F - 64.4 °F 78% 29.86 in 10.0 mi WNW 3.5 mph - N/A   Clear